Share

Ytterholmen Fyr, Noruega

Bronnoy (ENBN) Alt 30 ft | 65.46 °N, 12.22 °E | Change Station

Current weather conditions updated 42 minutes ago

Mostly Cloudy
Muy nublado
41 ° F
Sensación térmica 38 ° F
N
5
Viento Variable Viento desde Sur
Amanecer 5:14 AM
Atardecer 9:12 PM
Luna Gibosa menguante

Hoy se prevé una temperatura muy similar a la de ayer.

Presión 30.30 pul
Visibilidad 6.2 Millas
Nubes Baja 1200 ft
Muy nublado 1800 ft
Vientos helados 38 ° F
Punto de rocío 37 ° F
Humedad 87%
Precipitaciones 0.00 pul
Espesor de la nieve No disponible.
UV 0 de una escala de 16
Polen No disponible.
Calidad del aire No disponible.
Flu Activity No disponible.
METAR ENBN 200250Z 17004KT 9999 VCSH FEW012 BKN018 05/03 Q1026

More Conditions Fewer Conditions

Presión 30.30 pul
Visibilidad 6.2 Millas
Nubes Baja 1200 ft
Muy nublado 1800 ft
Vientos helados 38 ° F
Punto de rocío 37 ° F
Humedad 87%
Precipitaciones 0.00 pul
Espesor de la nieve No disponible.
UV 0 de una escala de 16
Polen No disponible.
Calidad del aire No disponible.
Flu Activity No disponible.
METAR ENBN 200250Z 17004KT 9999 VCSH FEW012 BKN018 05/03 Q1026

More Conditions Fewer Conditions

10-Day Weather Forecast

Almanac

Astronomía

Apr. 20, 2014 Salida Puesta
Hora real 5:14 AM CEST 9:12 PM CEST
Crepúsculo civil 4:09 AM CEST 10:18 PM CEST
Crepúsculo náutico 2:03 AM CEST 12:37 AM CEST
Crepúsculo astronómico Sun does not rise Sun does not rise
Luna 2:40 AM CEST 8:13 AM CEST
Horas de luz 18h 09m
Horas de luz
15h 58m
Tomorrow will be 7m 25s longer.
Gibosa menguante, 74% of the Moon is Illuminated
Abr 19
Gibosa menguante
Abr 22
Cuarto menguante
Abr 29
Nueva
May 6
Cuarto creciente
May 14
Luna llena

Extremos de ayer

Máximos del país Bajas del país

Community

  • Cherry Blossoms
    Cherry Blossoms
  • White-Crowned Sparrow
    White-Crowned Sparrow
  • New Day
    New Day
  • Happy Easter!
    Happy Easter!
  • poppy bloom near Mazar-e-Sharif
    poppy bloom near Mazar-e-Sharif

WunderPhotos

Upload Photos

1,703,063 ¡fotos cargadas!

WunderBlogs® & News

By Dr. Jeff Masters
Director of Meteorology, Weather Underground
By Kari Strenfel
Meteorologist, Weather Underground
By Christopher C. Burt
Weather Historian, Weather Underground
April 19, 2014
April 19, 2014
April 19, 2014

Nearby

Calidad del aire

Not available.

Grosos de nieve

Not available.

Temperaturas de aguas costeras

Lugar Temperatura
Sin partes meteorológicos de las estaciones

Actividad de terremotos

Ciudad Distance Mag. Tiempo y dato
No hay informes recientes de la actividad sísmica.
Magnitud mínima muestra es 2,5.

Estaciones meteorológicas cercanas

No hay estaciones meteorológicas personales en esta zona.

What do you think?

We're not finished. Please let us know what you like, what you don't like, and what you are still missing.